sensor_id;sensor_type;location;lat;lon;timestamp;pressure;altitude;pressure_sealevel;temperature;humidity
71559;BME280;59382;43.852;25.952;2022-12-07T00:01:14;101374.41;;;9.21;71.19
71559;BME280;59382;43.852;25.952;2022-12-07T00:03:42;101390.75;;;9.34;71.51
71559;BME280;59382;43.852;25.952;2022-12-07T00:06:10;101388.63;;;9.44;71.37
71559;BME280;59382;43.852;25.952;2022-12-07T00:08:36;101393.88;;;9.52;71.08
71559;BME280;59382;43.852;25.952;2022-12-07T00:13:29;101383.56;;;9.56;70.69
71559;BME280;59382;43.852;25.952;2022-12-07T00:15:55;101385.03;;;9.58;70.95
71559;BME280;59382;43.852;25.952;2022-12-07T00:18:20;101377.53;;;9.54;70.59
71559;BME280;59382;43.852;25.952;2022-12-07T00:20:46;101394.31;;;9.70;70.49
71559;BME280;59382;43.852;25.952;2022-12-07T00:23:11;101396.00;;;9.71;70.65
71559;BME280;59382;43.852;25.952;2022-12-07T00:25:37;101405.38;;;9.75;70.43
71559;BME280;59382;43.852;25.952;2022-12-07T00:28:05;101397.84;;;9.71;70.68
71559;BME280;59382;43.852;25.952;2022-12-07T00:30:32;101409.72;;;9.76;70.62
71559;BME280;59382;43.852;25.952;2022-12-07T00:32:57;101381.88;;;9.69;70.31
71559;BME280;59382;43.852;25.952;2022-12-07T00:35:23;101380.59;;;9.65;70.44
71559;BME280;59382;43.852;25.952;2022-12-07T00:37:48;101391.06;;;9.75;70.28
71559;BME280;59382;43.852;25.952;2022-12-07T00:40:14;101399.31;;;9.73;70.49
71559;BME280;59382;43.852;25.952;2022-12-07T00:42:39;101402.53;;;9.62;70.58
71559;BME280;59382;43.852;25.952;2022-12-07T00:45:05;101406.97;;;9.55;70.84
71559;BME280;59382;43.852;25.952;2022-12-07T00:47:31;101398.34;;;9.45;70.63
71559;BME280;59382;43.852;25.952;2022-12-07T00:49:56;101410.41;;;9.49;71.11
71559;BME280;59382;43.852;25.952;2022-12-07T00:52:23;101403.19;;;9.50;71.02
71559;BME280;59382;43.852;25.952;2022-12-07T00:54:48;101399.63;;;9.49;71.05
71559;BME280;59382;43.852;25.952;2022-12-07T00:57:14;101401.78;;;9.54;70.72
71559;BME280;59382;43.852;25.952;2022-12-07T00:59:39;101397.69;;;9.43;70.69
71559;BME280;59382;43.852;25.952;2022-12-07T01:02:05;101389.00;;;9.41;71.21
71559;BME280;59382;43.852;25.952;2022-12-07T01:04:33;101394.44;;;9.48;71.17
71559;BME280;59382;43.852;25.952;2022-12-07T01:06:59;101388.25;;;9.47;70.79
71559;BME280;59382;43.852;25.952;2022-12-07T01:09:26;101382.94;;;9.39;71.00
71559;BME280;59382;43.852;25.952;2022-12-07T01:11:52;101361.78;;;9.22;71.18
71559;BME280;59382;43.852;25.952;2022-12-07T01:14:18;101374.31;;;9.29;71.48
71559;BME280;59382;43.852;25.952;2022-12-07T01:16:43;101383.22;;;9.44;70.98
71559;BME280;59382;43.852;25.952;2022-12-07T01:19:09;101368.19;;;9.35;71.14
71559;BME280;59382;43.852;25.952;2022-12-07T01:21:35;101364.56;;;9.43;70.92
71559;BME280;59382;43.852;25.952;2022-12-07T01:24:02;101372.44;;;9.44;71.02
71559;BME280;59382;43.852;25.952;2022-12-07T01:26:28;101353.69;;;9.36;71.07
71559;BME280;59382;43.852;25.952;2022-12-07T01:28:54;101364.19;;;9.46;70.93
71559;BME280;59382;43.852;25.952;2022-12-07T01:31:22;101362.59;;;9.51;71.00
71559;BME280;59382;43.852;25.952;2022-12-07T01:33:51;101363.88;;;9.55;71.02
71559;BME280;59382;43.852;25.952;2022-12-07T01:38:45;101351.91;;;9.58;70.58
71559;BME280;59382;43.852;25.952;2022-12-07T01:41:13;101356.06;;;9.60;70.44
71559;BME280;59382;43.852;25.952;2022-12-07T01:44:16;101354.41;;;9.59;70.50
71559;BME280;59382;43.852;25.952;2022-12-07T01:46:45;101331.38;;;9.42;70.64
71559;BME280;59382;43.852;25.952;2022-12-07T01:49:24;101359.78;;;9.59;70.45
71559;BME280;59382;43.852;25.952;2022-12-07T01:51:57;101346.03;;;9.54;70.46
71559;BME280;59382;43.852;25.952;2022-12-07T01:54:24;101328.13;;;9.47;70.81
71559;BME280;59382;43.852;25.952;2022-12-07T01:56:52;101335.91;;;9.56;70.55
71559;BME280;59382;43.852;25.952;2022-12-07T01:59:21;101340.28;;;9.57;70.73
71559;BME280;59382;43.852;25.952;2022-12-07T02:01:48;101345.66;;;9.57;70.30
71559;BME280;59382;43.852;25.952;2022-12-07T02:04:14;101365.56;;;9.56;70.29
71559;BME280;59382;43.852;25.952;2022-12-07T02:06:40;101380.41;;;9.52;70.36
71559;BME280;59382;43.852;25.952;2022-12-07T02:09:07;101371.13;;;9.40;70.97
71559;BME280;59382;43.852;25.952;2022-12-07T02:11:32;101379.16;;;9.34;70.96
71559;BME280;59382;43.852;25.952;2022-12-07T02:14:01;101354.56;;;9.22;71.14
71559;BME280;59382;43.852;25.952;2022-12-07T02:22:16;101359.19;;;9.14;71.36
71559;BME280;59382;43.852;25.952;2022-12-07T02:30:23;101335.81;;;9.00;71.55
71559;BME280;59382;43.852;25.952;2022-12-07T02:33:15;101350.00;;;9.08;71.60
71559;BME280;59382;43.852;25.952;2022-12-07T02:38:45;101350.00;;;9.08;71.82
71559;BME280;59382;43.852;25.952;2022-12-07T02:41:28;101323.19;;;8.86;71.67
71559;BME280;59382;43.852;25.952;2022-12-07T02:44:02;101355.84;;;8.97;71.76
71559;BME280;59382;43.852;25.952;2022-12-07T02:46:42;101350.56;;;8.89;71.87
71559;BME280;59382;43.852;25.952;2022-12-07T02:49:08;101338.88;;;8.82;71.96
71559;BME280;59382;43.852;25.952;2022-12-07T02:51:41;101343.03;;;8.85;72.14
71559;BME280;59382;43.852;25.952;2022-12-07T02:54:17;101340.72;;;8.96;72.09
71559;BME280;59382;43.852;25.952;2022-12-07T03:00:14;101345.63;;;8.93;72.06
71559;BME280;59382;43.852;25.952;2022-12-07T03:03:09;101338.09;;;8.88;72.32
71559;BME280;59382;43.852;25.952;2022-12-07T03:11:15;101345.56;;;8.86;72.11
71559;BME280;59382;43.852;25.952;2022-12-07T03:16:29;101334.13;;;8.70;72.53
71559;BME280;59382;43.852;25.952;2022-12-07T03:18:59;101329.47;;;8.64;72.50
71559;BME280;59382;43.852;25.952;2022-12-07T03:21:31;101321.47;;;8.56;72.82
71559;BME280;59382;43.852;25.952;2022-12-07T03:24:00;101306.00;;;8.43;72.71
71559;BME280;59382;43.852;25.952;2022-12-07T03:26:37;101303.13;;;8.45;73.07
71559;BME280;59382;43.852;25.952;2022-12-07T03:29:12;101312.22;;;8.58;73.30
71559;BME280;59382;43.852;25.952;2022-12-07T03:31:42;101322.06;;;8.66;72.86
71559;BME280;59382;43.852;25.952;2022-12-07T03:34:30;101318.72;;;8.64;73.10
71559;BME280;59382;43.852;25.952;2022-12-07T03:37:20;101319.28;;;8.59;73.02
71559;BME280;59382;43.852;25.952;2022-12-07T03:42:35;101324.72;;;8.51;73.20
71559;BME280;59382;43.852;25.952;2022-12-07T03:45:02;101321.41;;;8.49;73.32
71559;BME280;59382;43.852;25.952;2022-12-07T03:47:34;101331.78;;;8.52;73.38
71559;BME280;59382;43.852;25.952;2022-12-07T03:50:21;101332.25;;;8.56;73.26
71559;BME280;59382;43.852;25.952;2022-12-07T03:53:02;101323.53;;;8.54;73.28
71559;BME280;59382;43.852;25.952;2022-12-07T03:55:35;101333.44;;;8.53;72.97
71559;BME280;59382;43.852;25.952;2022-12-07T03:58:11;101323.91;;;8.51;73.14
71559;BME280;59382;43.852;25.952;2022-12-07T04:00:37;101331.97;;;8.51;73.12
71559;BME280;59382;43.852;25.952;2022-12-07T04:03:03;101326.78;;;8.49;73.32
71559;BME280;59382;43.852;25.952;2022-12-07T04:05:29;101318.03;;;8.47;73.34
71559;BME280;59382;43.852;25.952;2022-12-07T04:07:54;101315.66;;;8.52;73.46
71559;BME280;59382;43.852;25.952;2022-12-07T04:10:20;101298.19;;;8.48;73.11
71559;BME280;59382;43.852;25.952;2022-12-07T04:12:46;101324.22;;;8.70;72.97
71559;BME280;59382;43.852;25.952;2022-12-07T04:15:12;101320.00;;;8.68;72.96
71559;BME280;59382;43.852;25.952;2022-12-07T04:17:37;101326.97;;;8.77;72.83
71559;BME280;59382;43.852;25.952;2022-12-07T04:20:04;101333.88;;;8.79;72.90
71559;BME280;59382;43.852;25.952;2022-12-07T04:22:30;101326.16;;;8.76;73.05
71559;BME280;59382;43.852;25.952;2022-12-07T04:24:56;101311.00;;;8.75;72.67
71559;BME280;59382;43.852;25.952;2022-12-07T04:27:21;101331.00;;;8.81;72.69
71559;BME280;59382;43.852;25.952;2022-12-07T04:29:50;101334.31;;;8.83;72.56
71559;BME280;59382;43.852;25.952;2022-12-07T04:32:15;101322.38;;;8.85;72.58
71559;BME280;59382;43.852;25.952;2022-12-07T04:34:42;101294.88;;;8.75;72.50
71559;BME280;59382;43.852;25.952;2022-12-07T04:37:08;101322.72;;;8.82;72.54
71559;BME280;59382;43.852;25.952;2022-12-07T04:39:36;101301.00;;;8.69;72.57
71559;BME280;59382;43.852;25.952;2022-12-07T04:42:02;101321.03;;;8.81;72.69
71559;BME280;59382;43.852;25.952;2022-12-07T04:44:29;101312.78;;;8.83;72.77
71559;BME280;59382;43.852;25.952;2022-12-07T04:46:55;101322.81;;;8.89;72.40
71559;BME280;59382;43.852;25.952;2022-12-07T04:49:22;101300.34;;;8.82;72.38
71559;BME280;59382;43.852;25.952;2022-12-07T04:51:47;101310.84;;;8.77;72.45
71559;BME280;59382;43.852;25.952;2022-12-07T04:54:14;101331.19;;;8.79;72.54
71559;BME280;59382;43.852;25.952;2022-12-07T04:56:40;101327.34;;;8.88;72.71
71559;BME280;59382;43.852;25.952;2022-12-07T04:59:06;101334.06;;;8.92;72.51
71559;BME280;59382;43.852;25.952;2022-12-07T05:01:33;101316.13;;;8.85;72.23
71559;BME280;59382;43.852;25.952;2022-12-07T05:04:02;101329.66;;;8.91;72.64
71559;BME280;59382;43.852;25.952;2022-12-07T05:06:27;101330.03;;;8.88;72.56
71559;BME280;59382;43.852;25.952;2022-12-07T05:08:53;101335.22;;;8.90;72.63
71559;BME280;59382;43.852;25.952;2022-12-07T05:11:18;101336.81;;;8.84;72.27
71559;BME280;59382;43.852;25.952;2022-12-07T05:14:08;101345.56;;;8.86;72.53
71559;BME280;59382;43.852;25.952;2022-12-07T05:16:34;101336.00;;;8.84;72.42
71559;BME280;59382;43.852;25.952;2022-12-07T05:19:00;101337.09;;;8.75;72.69
71559;BME280;59382;43.852;25.952;2022-12-07T05:21:25;101319.63;;;8.71;72.57
71559;BME280;59382;43.852;25.952;2022-12-07T05:23:51;101331.53;;;8.76;72.57
71559;BME280;59382;43.852;25.952;2022-12-07T05:26:19;101343.59;;;8.80;72.40
71559;BME280;59382;43.852;25.952;2022-12-07T05:28:45;101344.63;;;8.79;72.25
71559;BME280;59382;43.852;25.952;2022-12-07T05:31:14;101350.28;;;8.84;72.35
71559;BME280;59382;43.852;25.952;2022-12-07T05:33:40;101352.34;;;8.82;72.46
71559;BME280;59382;43.852;25.952;2022-12-07T05:36:05;101345.91;;;8.83;72.54
71559;BME280;59382;43.852;25.952;2022-12-07T05:38:33;101334.22;;;8.76;72.38
71559;BME280;59382;43.852;25.952;2022-12-07T05:41:06;101321.78;;;8.75;72.48
71559;BME280;59382;43.852;25.952;2022-12-07T05:43:33;101335.53;;;8.80;72.48
71559;BME280;59382;43.852;25.952;2022-12-07T05:45:59;101325.25;;;8.84;72.08
71559;BME280;59382;43.852;25.952;2022-12-07T05:48:25;101336.75;;;8.92;72.09
71559;BME280;59382;43.852;25.952;2022-12-07T05:50:51;101304.25;;;8.79;72.25
71559;BME280;59382;43.852;25.952;2022-12-07T05:53:17;101327.91;;;8.98;71.87
71559;BME280;59382;43.852;25.952;2022-12-07T05:55:43;101320.59;;;8.92;72.00
71559;BME280;59382;43.852;25.952;2022-12-07T05:58:09;101326.97;;;8.91;72.13
71559;BME280;59382;43.852;25.952;2022-12-07T06:00:56;101329.84;;;8.90;72.15
71559;BME280;59382;43.852;25.952;2022-12-07T06:03:21;101316.03;;;8.78;72.21
71559;BME280;59382;43.852;25.952;2022-12-07T06:05:47;101332.84;;;8.80;72.51
71559;BME280;59382;43.852;25.952;2022-12-07T06:08:13;101297.94;;;8.58;72.50
71559;BME280;59382;43.852;25.952;2022-12-07T06:10:40;101336.81;;;8.84;72.36
71559;BME280;59382;43.852;25.952;2022-12-07T06:13:07;101322.06;;;8.80;72.18
71559;BME280;59382;43.852;25.952;2022-12-07T06:15:32;101335.41;;;8.88;72.47
71559;BME280;59382;43.852;25.952;2022-12-07T06:17:58;101330.03;;;8.88;72.26
71559;BME280;59382;43.852;25.952;2022-12-07T06:20:26;101330.69;;;8.90;72.25
71559;BME280;59382;43.852;25.952;2022-12-07T06:22:53;101332.72;;;8.88;72.20
71559;BME280;59382;43.852;25.952;2022-12-07T06:25:18;101331.97;;;8.94;72.45
71559;BME280;59382;43.852;25.952;2022-12-07T06:27:44;101325.84;;;9.00;72.34
71559;BME280;59382;43.852;25.952;2022-12-07T06:30:11;101324.19;;;8.99;71.95
71559;BME280;59382;43.852;25.952;2022-12-07T06:32:39;101338.00;;;9.11;71.85
71559;BME280;59382;43.852;25.952;2022-12-07T06:35:05;101332.19;;;9.07;71.86
71559;BME280;59382;43.852;25.952;2022-12-07T06:37:30;101330.13;;;9.09;71.77
71559;BME280;59382;43.852;25.952;2022-12-07T06:39:56;101340.16;;;9.15;71.92
71559;BME280;59382;43.852;25.952;2022-12-07T06:42:21;101342.22;;;9.13;71.53
71559;BME280;59382;43.852;25.952;2022-12-07T06:44:47;101339.03;;;9.10;71.61
71559;BME280;59382;43.852;25.952;2022-12-07T06:47:15;101349.63;;;9.11;71.51
71559;BME280;59382;43.852;25.952;2022-12-07T06:49:41;101331.72;;;9.04;71.57
71559;BME280;59382;43.852;25.952;2022-12-07T06:52:06;101353.97;;;9.12;71.46
71559;BME280;59382;43.852;25.952;2022-12-07T06:54:32;101347.59;;;9.13;71.36
71559;BME280;59382;43.852;25.952;2022-12-07T06:56:57;101349.63;;;9.11;71.27
71559;BME280;59382;43.852;25.952;2022-12-07T06:59:23;101350.91;;;9.15;70.96
71559;BME280;59382;43.852;25.952;2022-12-07T07:01:48;101341.25;;;9.06;70.81
71559;BME280;59382;43.852;25.952;2022-12-07T07:04:14;101340.25;;;9.07;70.98
71559;BME280;59382;43.852;25.952;2022-12-07T07:06:41;101352.97;;;9.13;71.58
71559;BME280;59382;43.852;25.952;2022-12-07T07:09:06;101349.25;;;9.14;70.98
71559;BME280;59382;43.852;25.952;2022-12-07T07:11:32;101358.00;;;9.16;70.74
71559;BME280;59382;43.852;25.952;2022-12-07T07:13:58;101364.66;;;9.20;70.67
71559;BME280;59382;43.852;25.952;2022-12-07T07:16:29;101347.22;;;9.16;70.73
71559;BME280;59382;43.852;25.952;2022-12-07T07:18:55;101340.16;;;9.15;70.57
71559;BME280;59382;43.852;25.952;2022-12-07T07:21:21;101346.84;;;9.19;70.66
71559;BME280;59382;43.852;25.952;2022-12-07T07:23:47;101348.78;;;9.25;70.78
71559;BME280;59382;43.852;25.952;2022-12-07T07:26:12;101347.09;;;9.24;70.61
71559;BME280;59382;43.852;25.952;2022-12-07T07:28:38;101345.34;;;9.17;70.53
71559;BME280;59382;43.852;25.952;2022-12-07T07:31:04;101358.91;;;9.23;70.44
71559;BME280;59382;43.852;25.952;2022-12-07T07:33:29;101347.84;;;9.18;70.58
71559;BME280;59382;43.852;25.952;2022-12-07T07:35:55;101339.41;;;9.21;70.78
71559;BME280;59382;43.852;25.952;2022-12-07T07:38:23;101349.06;;;9.30;70.70
71559;BME280;59382;43.852;25.952;2022-12-07T07:40:48;101335.50;;;9.38;70.37
71559;BME280;59382;43.852;25.952;2022-12-07T07:43:14;101332.78;;;9.38;70.32
71559;BME280;59382;43.852;25.952;2022-12-07T07:45:40;101340.13;;;9.44;70.07
71559;BME280;59382;43.852;25.952;2022-12-07T07:48:08;101349.22;;;9.43;70.05
71559;BME280;59382;43.852;25.952;2022-12-07T07:50:34;101347.75;;;9.41;69.67
71559;BME280;59382;43.852;25.952;2022-12-07T07:52:59;101336.16;;;9.26;69.87
71559;BME280;59382;43.852;25.952;2022-12-07T07:55:28;101331.88;;;9.31;70.20
71559;BME280;59382;43.852;25.952;2022-12-07T07:57:54;101343.81;;;9.43;69.95
71559;BME280;59382;43.852;25.952;2022-12-07T08:00:23;101338.72;;;9.48;69.74
71559;BME280;59382;43.852;25.952;2022-12-07T08:02:48;101340.84;;;9.53;69.87
71559;BME280;59382;43.852;25.952;2022-12-07T08:05:14;101337.69;;;9.49;69.57
71559;BME280;59382;43.852;25.952;2022-12-07T08:07:42;101348.78;;;9.40;69.59
71559;BME280;59382;43.852;25.952;2022-12-07T08:10:10;101348.69;;;9.33;69.66
71559;BME280;59382;43.852;25.952;2022-12-07T08:12:41;101354.06;;;9.33;69.98
71559;BME280;59382;43.852;25.952;2022-12-07T08:15:27;101354.06;;;9.33;69.86
71559;BME280;59382;43.852;25.952;2022-12-07T08:17:53;101339.78;;;9.18;69.84
71559;BME280;59382;43.852;25.952;2022-12-07T08:20:20;101354.38;;;9.24;70.28
71559;BME280;59382;43.852;25.952;2022-12-07T08:22:45;101331.69;;;9.18;70.09
71559;BME280;59382;43.852;25.952;2022-12-07T08:25:11;101354.06;;;9.33;70.05
71559;BME280;59382;43.852;25.952;2022-12-07T08:27:36;101345.22;;;9.39;69.95
71559;BME280;59382;43.852;25.952;2022-12-07T08:30:02;101337.16;;;9.39;69.67
71559;BME280;59382;43.852;25.952;2022-12-07T08:32:28;101329.94;;;9.25;69.60
71559;BME280;59382;43.852;25.952;2022-12-07T08:34:53;101333.25;;;9.27;69.51
71559;BME280;59382;43.852;25.952;2022-12-07T08:37:19;101332.72;;;9.17;69.82
71559;BME280;59382;43.852;25.952;2022-12-07T08:39:47;101331.06;;;9.16;69.88
71559;BME280;59382;43.852;25.952;2022-12-07T08:42:12;101346.47;;;9.22;69.88
71559;BME280;59382;43.852;25.952;2022-12-07T08:44:41;101338.84;;;9.26;69.86
71559;BME280;59382;43.852;25.952;2022-12-07T08:47:10;101346.47;;;9.22;69.74
71559;BME280;59382;43.852;25.952;2022-12-07T08:49:39;101333.00;;;9.08;69.58
71559;BME280;59382;43.852;25.952;2022-12-07T08:52:07;101327.19;;;9.04;70.10
71559;BME280;59382;43.852;25.952;2022-12-07T08:54:34;101346.09;;;9.11;70.34
71559;BME280;59382;43.852;25.952;2022-12-07T08:57:02;101334.50;;;9.10;70.22
71559;BME280;59382;43.852;25.952;2022-12-07T08:59:36;101333.47;;;9.11;70.17
71559;BME280;59382;43.852;25.952;2022-12-07T09:02:03;101307.31;;;9.05;69.84
71559;BME280;59382;43.852;25.952;2022-12-07T09:04:30;101313.59;;;9.12;70.08
71559;BME280;59382;43.852;25.952;2022-12-07T09:06:56;101303.88;;;9.11;70.09
71559;BME280;59382;43.852;25.952;2022-12-07T09:09:23;101280.75;;;9.02;70.14
71559;BME280;59382;43.852;25.952;2022-12-07T09:11:49;101285.00;;;9.11;69.99
71559;BME280;59382;43.852;25.952;2022-12-07T09:14:14;101288.00;;;9.16;69.72
71559;BME280;59382;43.852;25.952;2022-12-07T09:16:40;101297.91;;;9.16;69.96
71559;BME280;59382;43.852;25.952;2022-12-07T09:19:11;101300.94;;;9.27;69.77
71559;BME280;59382;43.852;25.952;2022-12-07T09:21:37;101283.13;;;9.26;69.60
71559;BME280;59382;43.852;25.952;2022-12-07T09:24:24;101303.59;;;9.42;69.49
71559;BME280;59382;43.852;25.952;2022-12-07T09:26:50;101304.53;;;9.49;69.35
71559;BME280;59382;43.852;25.952;2022-12-07T09:29:20;101296.25;;;9.50;69.76
71559;BME280;59382;43.852;25.952;2022-12-07T09:31:51;101302.28;;;9.52;69.28
71559;BME280;59382;43.852;25.952;2022-12-07T09:34:19;101304.59;;;9.55;69.36
71559;BME280;59382;43.852;25.952;2022-12-07T09:36:46;101284.94;;;9.40;69.27
71559;BME280;59382;43.852;25.952;2022-12-07T09:39:18;101300.72;;;9.43;69.47
71559;BME280;59382;43.852;25.952;2022-12-07T09:41:44;101307.16;;;9.42;69.61
71559;BME280;59382;43.852;25.952;2022-12-07T09:44:22;101291.88;;;9.28;69.62
71559;BME280;59382;43.852;25.952;2022-12-07T09:46:50;101303.28;;;9.30;69.44
71559;BME280;59382;43.852;25.952;2022-12-07T09:49:21;101287.25;;;9.22;69.53
71559;BME280;59382;43.852;25.952;2022-12-07T09:52:00;101271.84;;;9.16;69.69
71559;BME280;59382;43.852;25.952;2022-12-07T09:54:28;101269.53;;;9.13;69.82
71559;BME280;59382;43.852;25.952;2022-12-07T09:56:55;101280.16;;;9.21;69.93
71559;BME280;59382;43.852;25.952;2022-12-07T09:59:20;101262.34;;;9.20;70.05
71559;BME280;59382;43.852;25.952;2022-12-07T10:01:49;101269.00;;;9.24;69.89
71559;BME280;59382;43.852;25.952;2022-12-07T10:06:43;101262.19;;;9.43;69.60
71559;BME280;59382;43.852;25.952;2022-12-07T10:09:12;101265.22;;;9.54;69.72
71559;BME280;59382;43.852;25.952;2022-12-07T10:12:06;101262.78;;;9.59;69.39
71559;BME280;59382;43.852;25.952;2022-12-07T10:14:36;101248.16;;;9.47;69.22
71559;BME280;59382;43.852;25.952;2022-12-07T10:17:02;101252.78;;;9.53;69.14
71559;BME280;59382;43.852;25.952;2022-12-07T10:19:31;101261.09;;;9.58;69.41
71559;BME280;59382;43.852;25.952;2022-12-07T10:24:35;101247.50;;;9.66;68.97
71559;BME280;59382;43.852;25.952;2022-12-07T10:27:02;101248.78;;;9.70;69.05
71559;BME280;59382;43.852;25.952;2022-12-07T10:29:32;101248.88;;;9.77;68.88
71559;BME280;59382;43.852;25.952;2022-12-07T10:34:39;101240.59;;;9.78;68.64
71559;BME280;59382;43.852;25.952;2022-12-07T10:37:17;101235.97;;;9.72;68.58
71559;BME280;59382;43.852;25.952;2022-12-07T10:39:46;101246.84;;;9.85;68.74
71559;BME280;59382;43.852;25.952;2022-12-07T10:47:33;101217.84;;;9.87;68.49
71559;BME280;59382;43.852;25.952;2022-12-07T10:55:29;101226.44;;;9.97;68.19
71559;BME280;59382;43.852;25.952;2022-12-07T11:03:49;101204.63;;;9.92;68.16
71559;BME280;59382;43.852;25.952;2022-12-07T11:06:46;101219.97;;;9.92;68.79
71559;BME280;59382;43.852;25.952;2022-12-07T11:12:11;101215.38;;;9.86;68.42
71559;BME280;59382;43.852;25.952;2022-12-07T11:14:54;101222.59;;;9.85;68.27
71559;BME280;59382;43.852;25.952;2022-12-07T11:34:14;101204.00;;;10.18;67.49
71559;BME280;59382;43.852;25.952;2022-12-07T11:36:54;101202.81;;;10.21;67.71
71559;BME280;59382;43.852;25.952;2022-12-07T11:39:26;101188.47;;;10.20;67.33
71559;BME280;59382;43.852;25.952;2022-12-07T11:42:38;101194.72;;;10.21;67.44
71559;BME280;59382;43.852;25.952;2022-12-07T11:45:21;101193.69;;;10.22;67.62
71559;BME280;59382;43.852;25.952;2022-12-07T11:53:20;101184.31;;;10.18;67.69
71559;BME280;59382;43.852;25.952;2022-12-07T11:56:00;101181.22;;;10.21;67.48
71559;BME280;59382;43.852;25.952;2022-12-07T11:58:35;101172.75;;;10.24;67.29
71559;BME280;59382;43.852;25.952;2022-12-07T12:03:50;101159.41;;;10.16;67.22
71559;BME280;59382;43.852;25.952;2022-12-07T12:06:19;101163.75;;;10.17;67.54
71559;BME280;59382;43.852;25.952;2022-12-07T12:20:30;101156.03;;;10.07;68.01
71559;BME280;59382;43.852;25.952;2022-12-07T12:23:36;101153.75;;;10.11;67.59
71559;BME280;59382;43.852;25.952;2022-12-07T12:26:02;101141.31;;;10.10;67.50
71559;BME280;59382;43.852;25.952;2022-12-07T12:28:41;101138.47;;;10.18;67.47
71559;BME280;59382;43.852;25.952;2022-12-07T12:33:51;101128.75;;;10.23;66.83
71559;BME280;59382;43.852;25.952;2022-12-07T12:46:56;101122.91;;;10.20;66.74
71559;BME280;59382;43.852;25.952;2022-12-07T12:52:01;101122.66;;;10.08;66.84
71559;BME280;59382;43.852;25.952;2022-12-07T12:57:32;101127.19;;;10.08;66.68
71559;BME280;59382;43.852;25.952;2022-12-07T13:02:55;101137.22;;;9.92;67.32
71559;BME280;59382;43.852;25.952;2022-12-07T13:05:23;101138.66;;;9.88;67.59
71559;BME280;59382;43.852;25.952;2022-12-07T13:07:53;101124.03;;;9.76;67.68
71559;BME280;59382;43.852;25.952;2022-12-07T13:15:38;101121.75;;;10.01;67.40
71559;BME280;59382;43.852;25.952;2022-12-07T13:26:14;101099.97;;;10.02;67.42
71559;BME280;59382;43.852;25.952;2022-12-07T13:28:46;101100.56;;;9.98;67.23
71559;BME280;59382;43.852;25.952;2022-12-07T13:31:22;101105.13;;;9.97;67.53
71559;BME280;59382;43.852;25.952;2022-12-07T13:33:49;101094.06;;;9.86;67.46
71559;BME280;59382;43.852;25.952;2022-12-07T13:36:19;101099.88;;;9.89;67.23
71559;BME280;59382;43.852;25.952;2022-12-07T13:39:00;101093.88;;;9.87;67.16
71559;BME280;59382;43.852;25.952;2022-12-07T13:41:35;101091.56;;;9.84;67.43
71559;BME280;59382;43.852;25.952;2022-12-07T13:44:03;101095.13;;;9.91;67.18
71559;BME280;59382;43.852;25.952;2022-12-07T13:49:26;101100.91;;;9.88;67.33
71559;BME280;59382;43.852;25.952;2022-12-07T13:52:16;101089.66;;;9.78;67.49
71559;BME280;59382;43.852;25.952;2022-12-07T13:57:21;101090.13;;;9.88;67.62
71559;BME280;59382;43.852;25.952;2022-12-07T13:59:47;101088.47;;;9.87;67.65
71559;BME280;59382;43.852;25.952;2022-12-07T14:02:27;101105.78;;;9.99;67.55
71559;BME280;59382;43.852;25.952;2022-12-07T14:05:15;101075.41;;;9.91;67.58
71559;BME280;59382;43.852;25.952;2022-12-07T14:08:03;101101.28;;;10.07;67.34
71559;BME280;59382;43.852;25.952;2022-12-07T14:10:32;101096.88;;;10.06;67.20
71559;BME280;59382;43.852;25.952;2022-12-07T14:13:04;101095.19;;;10.04;67.11
71559;BME280;59382;43.852;25.952;2022-12-07T14:15:51;101093.19;;;10.07;67.13
71559;BME280;59382;43.852;25.952;2022-12-07T14:18:30;101104.97;;;10.06;66.93
71559;BME280;59382;43.852;25.952;2022-12-07T14:21:24;101097.28;;;10.02;66.89
71559;BME280;59382;43.852;25.952;2022-12-07T14:24:20;101097.03;;;9.97;66.83
71559;BME280;59382;43.852;25.952;2022-12-07T14:26:52;101085.94;;;9.79;67.07
71559;BME280;59382;43.852;25.952;2022-12-07T14:31:52;101084.75;;;9.88;67.16
71559;BME280;59382;43.852;25.952;2022-12-07T14:34:20;101086.38;;;9.83;67.08
71559;BME280;59382;43.852;25.952;2022-12-07T14:36:47;101089.47;;;9.80;67.06
71559;BME280;59382;43.852;25.952;2022-12-07T14:39:13;101096.72;;;9.79;67.05
71559;BME280;59382;43.852;25.952;2022-12-07T14:41:39;101084.81;;;9.67;66.98
71559;BME280;59382;43.852;25.952;2022-12-07T14:44:22;101081.50;;;9.65;67.36
71559;BME280;59382;43.852;25.952;2022-12-07T14:46:51;101083.16;;;9.66;67.43
71559;BME280;59382;43.852;25.952;2022-12-07T14:49:29;101089.19;;;9.68;67.34
71559;BME280;59382;43.852;25.952;2022-12-07T14:51:55;101087.94;;;9.71;67.57
71559;BME280;59382;43.852;25.952;2022-12-07T14:54:24;101078.00;;;9.71;67.42
71559;BME280;59382;43.852;25.952;2022-12-07T14:56:52;101078.41;;;9.68;67.27
71559;BME280;59382;43.852;25.952;2022-12-07T14:59:19;101074.66;;;9.69;67.57
71559;BME280;59382;43.852;25.952;2022-12-07T15:01:45;101057.84;;;9.61;67.59
71559;BME280;59382;43.852;25.952;2022-12-07T15:04:11;101044.22;;;9.41;67.57
71559;BME280;59382;43.852;25.952;2022-12-07T15:06:36;101069.81;;;9.58;67.62
71559;BME280;59382;43.852;25.952;2022-12-07T15:09:04;101073.28;;;9.52;67.54
71559;BME280;59382;43.852;25.952;2022-12-07T15:11:31;101084.50;;;9.56;67.80
71559;BME280;59382;43.852;25.952;2022-12-07T15:17:18;101074.53;;;9.50;67.79
71559;BME280;59382;43.852;25.952;2022-12-07T15:19:54;101069.97;;;9.50;68.23
71559;BME280;59382;43.852;25.952;2022-12-07T15:22:52;101055.59;;;9.43;68.03
71559;BME280;59382;43.852;25.952;2022-12-07T15:25:18;101055.38;;;9.38;68.21
71559;BME280;59382;43.852;25.952;2022-12-07T15:27:46;101043.09;;;9.29;68.59